Huvudsida
METAR-TAF:

METAR-TAF

Flygplatser :

Rabat-Salé Airport

Rabat, Marocko

latitud: 34-03N, longitud: 006-46W, höjd: 84 m

Aktuellt väderrapport

Denna rapport gjordes för 14 minuter sedan, klockan 12:30 UTC
Vind 10 kt från väst/nordväst, varierande mellan väst/sydväst och nordväst
Temperatur 21°C
Fuktighet 49%
Tryck 1019 hPa
Sikt 10 km eller mer
Spridda moln på en höjd av 2000 ft
Spridda moln på en höjd av 23000 ft

METAR: GMME 251230Z 29010KT 240V320 9999 SCT020 SCT230 21/10 Q1019 NOSIG

Tid: 13:44 (12:44 UTC)

Väderprognos

Denna rapport gjordes för 1 timme och 44 minuter sedan, klockan 11:00 UTC
Prognos gäller från 25 kl. 12 UTC till 26 kl. 18 UTC
Vind 15 kt från nordväst
Sikt 10 km eller mer
Spridda moln på en höjd av 2000 ft
Spridda moln på en höjd av 20000 ft
Temporärt
från 25 kl. 21 UTC till 26 kl. 12 UTC
Vind 13 kt från nordost

TAF: GMME 251100Z 2512/2618 32015KT 9999 SCT020 SCT200 TEMPO 2521/2612 04013KT

Aktuella väderrapporter och prognoser från 4000 flygplatser (METAR- och TAF-rapporter).

De tillgängliga stationerna syns som gula och röda prickar på kartan.

För musen över prickarna för att se namnen på stationerna.

Klicka sedan för att få väderrapporter och prognoser.

För att ändra kartan: Klicka på de gröna knapparna med ett svart kors på för att zooma in; den gröna knappen med ett streck på för att zooma ut; eller på de gröna pilarna för angränsande kartor.


METAR-TAF: